sensor_id;sensor_type;location;lat;lon;timestamp;temperature;humidity
18777;DHT22;9517;51.174;4.160;2022-11-15T00:00:00;10.60;99.90
18777;DHT22;9517;51.174;4.160;2022-11-15T00:02:27;10.70;99.90
18777;DHT22;9517;51.174;4.160;2022-11-15T00:04:55;10.80;99.90
18777;DHT22;9517;51.174;4.160;2022-11-15T00:07:22;10.90;99.90
18777;DHT22;9517;51.174;4.160;2022-11-15T00:09:49;11.10;99.90
18777;DHT22;9517;51.174;4.160;2022-11-15T00:12:16;11.20;99.90
18777;DHT22;9517;51.174;4.160;2022-11-15T00:14:43;11.20;99.90
18777;DHT22;9517;51.174;4.160;2022-11-15T00:17:11;11.10;99.90
18777;DHT22;9517;51.174;4.160;2022-11-15T00:19:38;11.10;99.90
18777;DHT22;9517;51.174;4.160;2022-11-15T00:22:06;11.10;99.90
18777;DHT22;9517;51.174;4.160;2022-11-15T00:24:33;11.10;99.90
18777;DHT22;9517;51.174;4.160;2022-11-15T00:27:00;11.30;99.90
18777;DHT22;9517;51.174;4.160;2022-11-15T00:29:27;11.30;99.90
18777;DHT22;9517;51.174;4.160;2022-11-15T00:31:54;11.30;99.90
18777;DHT22;9517;51.174;4.160;2022-11-15T00:34:21;11.30;99.90
18777;DHT22;9517;51.174;4.160;2022-11-15T00:36:48;11.30;99.90
18777;DHT22;9517;51.174;4.160;2022-11-15T00:39:16;11.30;99.90
18777;DHT22;9517;51.174;4.160;2022-11-15T00:41:43;11.40;99.90
18777;DHT22;9517;51.174;4.160;2022-11-15T00:44:10;11.30;99.90
18777;DHT22;9517;51.174;4.160;2022-11-15T00:46:37;11.40;99.90
18777;DHT22;9517;51.174;4.160;2022-11-15T00:49:04;11.50;99.90
18777;DHT22;9517;51.174;4.160;2022-11-15T00:51:31;11.40;99.90
18777;DHT22;9517;51.174;4.160;2022-11-15T00:53:59;11.40;99.90
18777;DHT22;9517;51.174;4.160;2022-11-15T00:56:27;11.40;99.90
18777;DHT22;9517;51.174;4.160;2022-11-15T00:58:54;11.40;99.90
18777;DHT22;9517;51.174;4.160;2022-11-15T01:01:21;11.30;99.90
18777;DHT22;9517;51.174;4.160;2022-11-15T01:03:48;11.30;99.90
18777;DHT22;9517;51.174;4.160;2022-11-15T01:06:15;11.40;99.90
18777;DHT22;9517;51.174;4.160;2022-11-15T01:08:42;11.20;99.90
18777;DHT22;9517;51.174;4.160;2022-11-15T01:11:11;11.20;99.90
18777;DHT22;9517;51.174;4.160;2022-11-15T01:13:40;11.10;99.90
18777;DHT22;9517;51.174;4.160;2022-11-15T01:16:08;11.20;99.90
18777;DHT22;9517;51.174;4.160;2022-11-15T01:18:37;11.10;99.90
18777;DHT22;9517;51.174;4.160;2022-11-15T01:21:08;11.10;99.90
18777;DHT22;9517;51.174;4.160;2022-11-15T01:23:36;11.10;99.90
18777;DHT22;9517;51.174;4.160;2022-11-15T01:26:05;11.20;99.90
18777;DHT22;9517;51.174;4.160;2022-11-15T01:28:34;11.20;99.90
18777;DHT22;9517;51.174;4.160;2022-11-15T01:31:04;11.30;99.90
18777;DHT22;9517;51.174;4.160;2022-11-15T01:33:34;11.20;99.90
18777;DHT22;9517;51.174;4.160;2022-11-15T01:36:03;11.20;99.90
18777;DHT22;9517;51.174;4.160;2022-11-15T01:38:31;11.20;99.90
18777;DHT22;9517;51.174;4.160;2022-11-15T01:41:00;11.20;99.90
18777;DHT22;9517;51.174;4.160;2022-11-15T01:43:29;11.40;99.90
18777;DHT22;9517;51.174;4.160;2022-11-15T01:45:59;11.40;99.90
18777;DHT22;9517;51.174;4.160;2022-11-15T01:48:31;11.40;99.90
18777;DHT22;9517;51.174;4.160;2022-11-15T01:51:00;11.60;99.90
18777;DHT22;9517;51.174;4.160;2022-11-15T01:53:30;11.60;99.90
18777;DHT22;9517;51.174;4.160;2022-11-15T01:56:02;11.60;99.90
18777;DHT22;9517;51.174;4.160;2022-11-15T01:58:31;11.60;99.90
18777;DHT22;9517;51.174;4.160;2022-11-15T02:00:59;11.70;99.90
18777;DHT22;9517;51.174;4.160;2022-11-15T02:03:44;11.80;99.90
18777;DHT22;9517;51.174;4.160;2022-11-15T02:06:13;11.70;99.90
18777;DHT22;9517;51.174;4.160;2022-11-15T02:08:41;11.80;99.90
18777;DHT22;9517;51.174;4.160;2022-11-15T02:11:09;11.80;99.90
18777;DHT22;9517;51.174;4.160;2022-11-15T02:13:36;11.70;99.90
18777;DHT22;9517;51.174;4.160;2022-11-15T02:16:11;11.60;99.90
18777;DHT22;9517;51.174;4.160;2022-11-15T02:18:45;11.60;99.90
18777;DHT22;9517;51.174;4.160;2022-11-15T02:21:22;11.50;99.90
18777;DHT22;9517;51.174;4.160;2022-11-15T02:24:22;11.50;99.90
18777;DHT22;9517;51.174;4.160;2022-11-15T02:27:23;11.60;99.90
18777;DHT22;9517;51.174;4.160;2022-11-15T02:30:04;11.50;99.90
18777;DHT22;9517;51.174;4.160;2022-11-15T02:32:39;11.60;99.90
18777;DHT22;9517;51.174;4.160;2022-11-15T02:35:15;11.80;99.90
18777;DHT22;9517;51.174;4.160;2022-11-15T02:37:50;12.00;99.90
18777;DHT22;9517;51.174;4.160;2022-11-15T02:40:27;11.90;99.90
18777;DHT22;9517;51.174;4.160;2022-11-15T02:43:01;11.90;99.90
18777;DHT22;9517;51.174;4.160;2022-11-15T02:45:51;11.90;99.90
18777;DHT22;9517;51.174;4.160;2022-11-15T02:48:23;11.90;99.90
18777;DHT22;9517;51.174;4.160;2022-11-15T02:50:51;11.80;99.90
18777;DHT22;9517;51.174;4.160;2022-11-15T02:53:23;11.80;99.90
18777;DHT22;9517;51.174;4.160;2022-11-15T02:55:51;11.80;99.90
18777;DHT22;9517;51.174;4.160;2022-11-15T03:01:15;11.80;99.90
18777;DHT22;9517;51.174;4.160;2022-11-15T03:03:57;11.70;99.90
18777;DHT22;9517;51.174;4.160;2022-11-15T03:06:33;11.80;99.90
18777;DHT22;9517;51.174;4.160;2022-11-15T03:09:08;11.80;99.90
18777;DHT22;9517;51.174;4.160;2022-11-15T03:11:39;11.70;99.90
18777;DHT22;9517;51.174;4.160;2022-11-15T03:14:15;11.70;99.90
18777;DHT22;9517;51.174;4.160;2022-11-15T03:16:50;11.70;99.90
18777;DHT22;9517;51.174;4.160;2022-11-15T03:19:23;11.70;99.90
18777;DHT22;9517;51.174;4.160;2022-11-15T03:21:55;11.90;99.90
18777;DHT22;9517;51.174;4.160;2022-11-15T03:24:23;11.70;99.90
18777;DHT22;9517;51.174;4.160;2022-11-15T03:26:53;11.70;99.90
18777;DHT22;9517;51.174;4.160;2022-11-15T03:29:24;11.60;99.90
18777;DHT22;9517;51.174;4.160;2022-11-15T03:31:58;11.60;99.90
18777;DHT22;9517;51.174;4.160;2022-11-15T03:34:32;11.70;99.90
18777;DHT22;9517;51.174;4.160;2022-11-15T03:37:01;11.60;99.90
18777;DHT22;9517;51.174;4.160;2022-11-15T03:39:28;11.50;99.90
18777;DHT22;9517;51.174;4.160;2022-11-15T03:42:04;11.50;99.90
18777;DHT22;9517;51.174;4.160;2022-11-15T03:44:40;11.50;99.90
18777;DHT22;9517;51.174;4.160;2022-11-15T03:47:12;11.50;99.90
18777;DHT22;9517;51.174;4.160;2022-11-15T03:49:46;11.40;99.90
18777;DHT22;9517;51.174;4.160;2022-11-15T03:52:17;11.40;99.90
18777;DHT22;9517;51.174;4.160;2022-11-15T03:54:50;11.50;99.90
18777;DHT22;9517;51.174;4.160;2022-11-15T03:57:17;11.40;99.90
18777;DHT22;9517;51.174;4.160;2022-11-15T03:59:44;11.50;99.90
18777;DHT22;9517;51.174;4.160;2022-11-15T04:02:11;11.50;99.90
18777;DHT22;9517;51.174;4.160;2022-11-15T04:04:38;11.50;99.90
18777;DHT22;9517;51.174;4.160;2022-11-15T04:07:08;11.40;99.90
18777;DHT22;9517;51.174;4.160;2022-11-15T04:09:55;11.50;99.90
18777;DHT22;9517;51.174;4.160;2022-11-15T04:12:33;11.60;99.90
18777;DHT22;9517;51.174;4.160;2022-11-15T04:15:03;11.50;99.90
18777;DHT22;9517;51.174;4.160;2022-11-15T04:17:38;11.40;99.90
18777;DHT22;9517;51.174;4.160;2022-11-15T04:20:09;11.40;99.90
18777;DHT22;9517;51.174;4.160;2022-11-15T04:22:56;11.30;99.90
18777;DHT22;9517;51.174;4.160;2022-11-15T04:25:41;11.10;99.90
18777;DHT22;9517;51.174;4.160;2022-11-15T04:28:08;11.10;99.90
18777;DHT22;9517;51.174;4.160;2022-11-15T04:30:35;11.00;99.90
18777;DHT22;9517;51.174;4.160;2022-11-15T04:33:02;11.00;99.90
18777;DHT22;9517;51.174;4.160;2022-11-15T04:35:30;11.10;99.90
18777;DHT22;9517;51.174;4.160;2022-11-15T04:37:58;11.00;99.90
18777;DHT22;9517;51.174;4.160;2022-11-15T04:40:26;11.00;99.90
18777;DHT22;9517;51.174;4.160;2022-11-15T04:42:53;11.00;99.90
18777;DHT22;9517;51.174;4.160;2022-11-15T04:45:20;11.00;99.90
18777;DHT22;9517;51.174;4.160;2022-11-15T04:47:47;11.00;99.90
18777;DHT22;9517;51.174;4.160;2022-11-15T04:50:15;11.00;99.90
18777;DHT22;9517;51.174;4.160;2022-11-15T04:52:49;11.00;99.90
18777;DHT22;9517;51.174;4.160;2022-11-15T04:55:18;11.00;99.90
18777;DHT22;9517;51.174;4.160;2022-11-15T04:57:45;11.00;99.90
18777;DHT22;9517;51.174;4.160;2022-11-15T05:00:14;11.00;99.90
18777;DHT22;9517;51.174;4.160;2022-11-15T05:02:48;10.90;99.90
18777;DHT22;9517;51.174;4.160;2022-11-15T05:05:32;10.80;99.90
18777;DHT22;9517;51.174;4.160;2022-11-15T05:08:00;10.80;99.90
18777;DHT22;9517;51.174;4.160;2022-11-15T05:10:28;10.80;99.90
18777;DHT22;9517;51.174;4.160;2022-11-15T05:12:55;10.80;99.90
18777;DHT22;9517;51.174;4.160;2022-11-15T05:15:23;10.60;99.90
18777;DHT22;9517;51.174;4.160;2022-11-15T05:17:50;10.70;99.90
18777;DHT22;9517;51.174;4.160;2022-11-15T05:20:17;10.70;99.90
18777;DHT22;9517;51.174;4.160;2022-11-15T05:22:44;10.60;99.90
18777;DHT22;9517;51.174;4.160;2022-11-15T05:25:11;10.40;99.90
18777;DHT22;9517;51.174;4.160;2022-11-15T05:27:48;10.40;99.90
18777;DHT22;9517;51.174;4.160;2022-11-15T05:30:19;10.30;99.90
18777;DHT22;9517;51.174;4.160;2022-11-15T05:32:47;10.30;99.90
18777;DHT22;9517;51.174;4.160;2022-11-15T05:35:20;10.30;99.90
18777;DHT22;9517;51.174;4.160;2022-11-15T05:37:49;10.20;99.90
18777;DHT22;9517;51.174;4.160;2022-11-15T05:40:16;10.30;99.90
18777;DHT22;9517;51.174;4.160;2022-11-15T05:42:45;10.20;99.90
18777;DHT22;9517;51.174;4.160;2022-11-15T05:45:16;10.10;99.90
18777;DHT22;9517;51.174;4.160;2022-11-15T05:47:45;10.10;99.90
18777;DHT22;9517;51.174;4.160;2022-11-15T05:50:20;10.30;99.90
18777;DHT22;9517;51.174;4.160;2022-11-15T05:52:49;10.10;99.90
18777;DHT22;9517;51.174;4.160;2022-11-15T05:55:26;10.00;99.90
18777;DHT22;9517;51.174;4.160;2022-11-15T05:57:55;10.00;99.90
18777;DHT22;9517;51.174;4.160;2022-11-15T06:00:23;9.90;99.90
18777;DHT22;9517;51.174;4.160;2022-11-15T06:02:50;9.80;99.90
18777;DHT22;9517;51.174;4.160;2022-11-15T06:05:22;9.80;99.90
18777;DHT22;9517;51.174;4.160;2022-11-15T06:07:57;9.80;99.90
18777;DHT22;9517;51.174;4.160;2022-11-15T06:10:25;9.90;99.90
18777;DHT22;9517;51.174;4.160;2022-11-15T06:12:58;9.80;99.90
18777;DHT22;9517;51.174;4.160;2022-11-15T06:15:26;9.90;99.90
18777;DHT22;9517;51.174;4.160;2022-11-15T06:17:56;9.80;99.90
18777;DHT22;9517;51.174;4.160;2022-11-15T06:20:28;9.90;99.90
18777;DHT22;9517;51.174;4.160;2022-11-15T06:22:57;10.00;99.90
18777;DHT22;9517;51.174;4.160;2022-11-15T06:25:26;9.90;99.90
18777;DHT22;9517;51.174;4.160;2022-11-15T06:28:05;9.80;99.90
18777;DHT22;9517;51.174;4.160;2022-11-15T06:31:15;9.80;99.90
18777;DHT22;9517;51.174;4.160;2022-11-15T06:33:38;9.80;99.90
18777;DHT22;9517;51.174;4.160;2022-11-15T06:36:33;9.80;99.90
18777;DHT22;9517;51.174;4.160;2022-11-15T06:39:01;9.90;99.90
18777;DHT22;9517;51.174;4.160;2022-11-15T06:41:35;10.00;99.90
18777;DHT22;9517;51.174;4.160;2022-11-15T06:44:17;9.90;99.90
18777;DHT22;9517;51.174;4.160;2022-11-15T06:46:58;9.90;99.90
18777;DHT22;9517;51.174;4.160;2022-11-15T06:49:44;9.90;99.90
18777;DHT22;9517;51.174;4.160;2022-11-15T06:52:39;9.80;99.90
18777;DHT22;9517;51.174;4.160;2022-11-15T06:55:20;9.70;99.90
18777;DHT22;9517;51.174;4.160;2022-11-15T06:57:48;9.80;99.90
18777;DHT22;9517;51.174;4.160;2022-11-15T07:00:25;9.80;99.90
18777;DHT22;9517;51.174;4.160;2022-11-15T07:03:02;9.80;99.90
18777;DHT22;9517;51.174;4.160;2022-11-15T07:05:32;9.70;99.90
18777;DHT22;9517;51.174;4.160;2022-11-15T07:08:03;9.70;99.90
18777;DHT22;9517;51.174;4.160;2022-11-15T07:10:32;9.70;99.90
18777;DHT22;9517;51.174;4.160;2022-11-15T07:13:00;9.70;99.90
18777;DHT22;9517;51.174;4.160;2022-11-15T07:15:43;9.70;99.90
18777;DHT22;9517;51.174;4.160;2022-11-15T07:18:11;9.70;99.90
18777;DHT22;9517;51.174;4.160;2022-11-15T07:20:39;9.70;99.90
18777;DHT22;9517;51.174;4.160;2022-11-15T07:23:08;9.80;99.90
18777;DHT22;9517;51.174;4.160;2022-11-15T07:25:35;9.60;99.90
18777;DHT22;9517;51.174;4.160;2022-11-15T07:28:03;9.70;99.90
18777;DHT22;9517;51.174;4.160;2022-11-15T07:30:31;9.70;99.90
18777;DHT22;9517;51.174;4.160;2022-11-15T07:33:01;9.80;99.90
18777;DHT22;9517;51.174;4.160;2022-11-15T07:35:30;9.80;99.90
18777;DHT22;9517;51.174;4.160;2022-11-15T07:37:59;9.80;99.90
18777;DHT22;9517;51.174;4.160;2022-11-15T07:40:30;9.90;99.90
18777;DHT22;9517;51.174;4.160;2022-11-15T07:43:05;9.80;99.90
18777;DHT22;9517;51.174;4.160;2022-11-15T07:45:44;9.90;99.90
18777;DHT22;9517;51.174;4.160;2022-11-15T07:48:16;9.90;99.90
18777;DHT22;9517;51.174;4.160;2022-11-15T07:50:44;10.00;99.90
18777;DHT22;9517;51.174;4.160;2022-11-15T07:53:12;10.10;99.90
18777;DHT22;9517;51.174;4.160;2022-11-15T07:55:43;10.00;99.90
18777;DHT22;9517;51.174;4.160;2022-11-15T07:58:12;10.20;99.90
18777;DHT22;9517;51.174;4.160;2022-11-15T08:00:39;10.20;99.90
18777;DHT22;9517;51.174;4.160;2022-11-15T08:03:10;10.30;99.90
18777;DHT22;9517;51.174;4.160;2022-11-15T08:05:49;10.30;99.90
18777;DHT22;9517;51.174;4.160;2022-11-15T08:08:19;10.40;99.90
18777;DHT22;9517;51.174;4.160;2022-11-15T08:10:50;10.30;99.90
18777;DHT22;9517;51.174;4.160;2022-11-15T08:13:23;10.40;99.90
18777;DHT22;9517;51.174;4.160;2022-11-15T08:15:57;10.40;99.90
18777;DHT22;9517;51.174;4.160;2022-11-15T08:18:32;10.40;99.90
18777;DHT22;9517;51.174;4.160;2022-11-15T08:21:05;10.50;99.90
18777;DHT22;9517;51.174;4.160;2022-11-15T08:23:32;10.60;99.90
18777;DHT22;9517;51.174;4.160;2022-11-15T08:26:00;10.70;99.90
18777;DHT22;9517;51.174;4.160;2022-11-15T08:28:30;10.90;99.90
18777;DHT22;9517;51.174;4.160;2022-11-15T08:30:58;10.90;99.90
18777;DHT22;9517;51.174;4.160;2022-11-15T08:33:27;10.90;99.90
18777;DHT22;9517;51.174;4.160;2022-11-15T08:36:00;10.90;99.90
18777;DHT22;9517;51.174;4.160;2022-11-15T08:38:29;10.80;99.90
18777;DHT22;9517;51.174;4.160;2022-11-15T08:41:07;10.90;99.90
18777;DHT22;9517;51.174;4.160;2022-11-15T08:43:54;10.90;99.90
18777;DHT22;9517;51.174;4.160;2022-11-15T08:46:27;10.90;99.90
18777;DHT22;9517;51.174;4.160;2022-11-15T08:49:01;11.00;99.90
18777;DHT22;9517;51.174;4.160;2022-11-15T08:51:43;11.10;99.90
18777;DHT22;9517;51.174;4.160;2022-11-15T08:54:19;11.10;99.90
18777;DHT22;9517;51.174;4.160;2022-11-15T08:56:56;11.20;99.90
18777;DHT22;9517;51.174;4.160;2022-11-15T08:59:26;11.30;99.90
18777;DHT22;9517;51.174;4.160;2022-11-15T09:02:20;11.40;99.90
18777;DHT22;9517;51.174;4.160;2022-11-15T09:04:50;11.50;99.90
18777;DHT22;9517;51.174;4.160;2022-11-15T09:07:46;11.80;99.90
18777;DHT22;9517;51.174;4.160;2022-11-15T09:10:24;11.90;99.90
18777;DHT22;9517;51.174;4.160;2022-11-15T09:13:03;12.10;99.90
18777;DHT22;9517;51.174;4.160;2022-11-15T09:16:01;12.00;99.90
18777;DHT22;9517;51.174;4.160;2022-11-15T09:18:50;12.10;99.90
18777;DHT22;9517;51.174;4.160;2022-11-15T09:21:29;12.20;99.90
18777;DHT22;9517;51.174;4.160;2022-11-15T09:24:05;12.10;99.90
18777;DHT22;9517;51.174;4.160;2022-11-15T09:26:59;12.10;99.90
18777;DHT22;9517;51.174;4.160;2022-11-15T09:29:37;12.00;99.90
18777;DHT22;9517;51.174;4.160;2022-11-15T18:21:17;12.60;99.90
18777;DHT22;9517;51.174;4.160;2022-11-15T21:27:15;13.20;99.90
18777;DHT22;9517;51.174;4.160;2022-11-15T21:29:44;13.20;99.90
18777;DHT22;9517;51.174;4.160;2022-11-15T21:32:14;13.20;99.90
18777;DHT22;9517;51.174;4.160;2022-11-15T21:34:41;13.20;99.90
18777;DHT22;9517;51.174;4.160;2022-11-15T21:37:08;13.10;99.90
18777;DHT22;9517;51.174;4.160;2022-11-15T21:39:35;13.10;99.90
18777;DHT22;9517;51.174;4.160;2022-11-15T21:42:03;13.20;99.90
18777;DHT22;9517;51.174;4.160;2022-11-15T21:44:35;13.10;99.90
18777;DHT22;9517;51.174;4.160;2022-11-15T21:47:02;13.10;99.90
18777;DHT22;9517;51.174;4.160;2022-11-15T21:49:29;13.10;99.90
18777;DHT22;9517;51.174;4.160;2022-11-15T21:51:56;13.10;99.90
18777;DHT22;9517;51.174;4.160;2022-11-15T21:54:23;13.20;99.90
18777;DHT22;9517;51.174;4.160;2022-11-15T21:56:50;13.20;99.90
18777;DHT22;9517;51.174;4.160;2022-11-15T21:59:17;13.20;99.90
18777;DHT22;9517;51.174;4.160;2022-11-15T22:01:45;13.30;99.90
18777;DHT22;9517;51.174;4.160;2022-11-15T22:04:30;13.30;99.90
18777;DHT22;9517;51.174;4.160;2022-11-15T22:06:56;13.30;99.90
18777;DHT22;9517;51.174;4.160;2022-11-15T22:09:24;13.20;99.90
18777;DHT22;9517;51.174;4.160;2022-11-15T22:11:51;13.20;99.90
18777;DHT22;9517;51.174;4.160;2022-11-15T22:14:18;13.20;99.90
18777;DHT22;9517;51.174;4.160;2022-11-15T22:16:46;13.20;99.90
18777;DHT22;9517;51.174;4.160;2022-11-15T22:19:13;13.20;99.90
18777;DHT22;9517;51.174;4.160;2022-11-15T22:21:40;13.10;99.90
18777;DHT22;9517;51.174;4.160;2022-11-15T22:24:07;13.00;99.90
18777;DHT22;9517;51.174;4.160;2022-11-15T22:26:34;13.10;99.90
18777;DHT22;9517;51.174;4.160;2022-11-15T22:29:01;13.30;99.90
18777;DHT22;9517;51.174;4.160;2022-11-15T22:31:28;13.20;99.90
18777;DHT22;9517;51.174;4.160;2022-11-15T22:33:57;13.20;99.90
18777;DHT22;9517;51.174;4.160;2022-11-15T22:36:24;13.30;99.90
18777;DHT22;9517;51.174;4.160;2022-11-15T22:38:51;13.20;99.90
18777;DHT22;9517;51.174;4.160;2022-11-15T22:41:18;13.20;99.90
18777;DHT22;9517;51.174;4.160;2022-11-15T22:43:45;13.30;99.90
18777;DHT22;9517;51.174;4.160;2022-11-15T22:46:13;13.20;99.90
18777;DHT22;9517;51.174;4.160;2022-11-15T22:48:40;13.20;99.90
18777;DHT22;9517;51.174;4.160;2022-11-15T22:51:09;13.20;99.90
18777;DHT22;9517;51.174;4.160;2022-11-15T22:53:36;13.30;99.90
18777;DHT22;9517;51.174;4.160;2022-11-15T22:56:04;13.40;99.90
18777;DHT22;9517;51.174;4.160;2022-11-15T22:58:32;13.20;99.90
18777;DHT22;9517;51.174;4.160;2022-11-15T23:01:01;13.40;99.90
18777;DHT22;9517;51.174;4.160;2022-11-15T23:03:29;13.20;99.90
18777;DHT22;9517;51.174;4.160;2022-11-15T23:06:00;13.30;99.90
18777;DHT22;9517;51.174;4.160;2022-11-15T23:08:29;13.30;99.90
18777;DHT22;9517;51.174;4.160;2022-11-15T23:11:01;13.30;99.90
18777;DHT22;9517;51.174;4.160;2022-11-15T23:13:48;13.20;99.90
18777;DHT22;9517;51.174;4.160;2022-11-15T23:16:16;13.20;99.90
18777;DHT22;9517;51.174;4.160;2022-11-15T23:18:48;13.00;99.90
18777;DHT22;9517;51.174;4.160;2022-11-15T23:21:17;13.10;99.90
18777;DHT22;9517;51.174;4.160;2022-11-15T23:24:08;13.10;99.90
18777;DHT22;9517;51.174;4.160;2022-11-15T23:26:34;13.10;99.90
18777;DHT22;9517;51.174;4.160;2022-11-15T23:29:02;13.10;99.90
18777;DHT22;9517;51.174;4.160;2022-11-15T23:31:29;13.00;99.90
18777;DHT22;9517;51.174;4.160;2022-11-15T23:34:14;13.10;99.90
18777;DHT22;9517;51.174;4.160;2022-11-15T23:36:41;13.00;99.90
18777;DHT22;9517;51.174;4.160;2022-11-15T23:39:10;13.30;99.90
18777;DHT22;9517;51.174;4.160;2022-11-15T23:41:37;13.20;99.90
18777;DHT22;9517;51.174;4.160;2022-11-15T23:44:04;13.20;99.90
18777;DHT22;9517;51.174;4.160;2022-11-15T23:46:31;13.10;99.90
18777;DHT22;9517;51.174;4.160;2022-11-15T23:48:58;13.10;99.90
18777;DHT22;9517;51.174;4.160;2022-11-15T23:51:25;13.00;99.90
18777;DHT22;9517;51.174;4.160;2022-11-15T23:53:52;13.00;99.90
18777;DHT22;9517;51.174;4.160;2022-11-15T23:56:24;13.10;99.90
18777;DHT22;9517;51.174;4.160;2022-11-15T23:58:51;13.20;99.90
